createdAt,value
2023-03-16T00:02:10.918Z,-0.73
2023-03-16T00:04:51.913Z,-0.72
2023-03-16T00:07:22.464Z,-0.70
2023-03-16T00:09:55.087Z,-0.68
2023-03-16T00:12:23.940Z,-0.68
2023-03-16T00:14:56.035Z,-0.67
2023-03-16T00:17:24.727Z,-0.68
2023-03-16T00:19:58.999Z,-0.67
2023-03-16T00:22:54.353Z,-0.66
2023-03-16T00:25:26.336Z,-0.66
2023-03-16T00:27:56.985Z,-0.67
2023-03-16T00:30:28.970Z,-0.66
2023-03-16T00:33:07.182Z,-0.65
2023-03-16T00:35:53.315Z,-0.65
2023-03-16T00:38:32.516Z,-0.62
2023-03-16T00:41:14.826Z,-0.58
2023-03-16T00:43:53.916Z,-0.53
2023-03-16T00:46:28.192Z,-0.49
2023-03-16T00:48:57.489Z,-0.48
2023-03-16T00:51:48.876Z,-0.45
2023-03-16T00:54:23.546Z,-0.43
2023-03-16T00:56:59.041Z,-0.45
2023-03-16T00:59:39.523Z,-0.50
2023-03-16T01:02:10.326Z,-0.53
2023-03-16T01:04:51.230Z,-0.55
2023-03-16T01:07:19.994Z,-0.56
2023-03-16T01:10:12.770Z,-0.57
2023-03-16T01:12:45.760Z,-0.63
2023-03-16T01:15:18.414Z,-0.68
2023-03-16T01:17:47.558Z,-0.72
2023-03-16T01:20:23.709Z,-0.75
2023-03-16T01:22:55.673Z,-0.72
2023-03-16T01:25:27.528Z,-0.66
2023-03-16T01:28:08.776Z,-0.58
2023-03-16T01:30:37.813Z,-0.53
2023-03-16T01:33:08.995Z,-0.51
2023-03-16T01:36:13.591Z,-0.47
2023-03-16T01:38:50.989Z,-0.45
2023-03-16T01:41:27.350Z,-0.47
2023-03-16T01:44:05.430Z,-0.49
2023-03-16T01:46:59.036Z,-0.51
2023-03-16T01:49:36.025Z,-0.57
2023-03-16T01:52:24.636Z,-0.60
2023-03-16T01:55:08.456Z,-0.60
2023-03-16T01:57:49.028Z,-0.61
2023-03-16T02:00:50.312Z,-0.63
2023-03-16T02:03:23.040Z,-0.68
2023-03-16T02:06:23.056Z,-0.72
2023-03-16T02:08:55.668Z,-0.77
2023-03-16T02:11:25.540Z,-0.80
2023-03-16T02:14:08.845Z,-0.81
2023-03-16T02:16:53.988Z,-0.84
2023-03-16T02:19:43.336Z,-0.87
2023-03-16T02:22:19.742Z,-0.85
2023-03-16T02:24:57.240Z,-0.85
2023-03-16T02:27:52.256Z,-0.82
2023-03-16T02:30:23.288Z,-0.82
2023-03-16T02:32:54.703Z,-0.80
2023-03-16T02:35:23.903Z,-0.80
2023-03-16T02:37:55.592Z,-0.78
2023-03-16T02:40:25.691Z,-0.76
2023-03-16T02:43:04.941Z,-0.72
2023-03-16T02:45:40.165Z,-0.71
2023-03-16T02:48:22.255Z,-0.62
2023-03-16T02:50:54.909Z,-0.55
2023-03-16T02:53:30.115Z,-0.55
2023-03-16T02:55:59.290Z,-0.57
2023-03-16T02:58:27.997Z,-0.59
2023-03-16T03:01:07.232Z,-0.61
2023-03-16T03:03:36.024Z,-0.61
2023-03-16T03:06:04.762Z,-0.62
2023-03-16T03:08:33.203Z,-0.63
2023-03-16T03:11:07.049Z,-0.63
2023-03-16T03:13:38.656Z,-0.63
2023-03-16T03:16:10.428Z,-0.63
2023-03-16T03:18:39.601Z,-0.59
2023-03-16T03:21:17.649Z,-0.57
2023-03-16T03:23:49.555Z,-0.53
2023-03-16T03:26:20.647Z,-0.51
2023-03-16T03:28:52.897Z,-0.51
2023-03-16T03:31:23.497Z,-0.53
2023-03-16T03:33:54.345Z,-0.56
2023-03-16T03:36:23.323Z,-0.56
2023-03-16T03:38:57.011Z,-0.52
2023-03-16T03:41:26.349Z,-0.49
2023-03-16T03:43:54.774Z,-0.49
2023-03-16T03:46:23.714Z,-0.51
2023-03-16T03:48:52.387Z,-0.56
2023-03-16T03:51:34.115Z,-0.58
2023-03-16T03:54:03.554Z,-0.58
2023-03-16T03:56:35.028Z,-0.57
2023-03-16T03:59:03.468Z,-0.57
2023-03-16T04:01:31.911Z,-0.58
2023-03-16T04:04:04.039Z,-0.57
2023-03-16T04:06:33.058Z,-0.54
2023-03-16T04:09:01.530Z,-0.54
2023-03-16T04:11:30.247Z,-0.53
2023-03-16T04:13:58.892Z,-0.54
2023-03-16T04:16:28.226Z,-0.57
2023-03-16T04:18:57.536Z,-0.56
2023-03-16T04:21:29.590Z,-0.59
2023-03-16T04:23:58.009Z,-0.61
2023-03-16T04:26:26.424Z,-0.65
2023-03-16T04:28:57.311Z,-0.68
2023-03-16T04:31:25.854Z,-0.72
2023-03-16T04:33:56.938Z,-0.74
2023-03-16T04:36:25.727Z,-0.75
2023-03-16T04:38:54.626Z,-0.73
2023-03-16T04:41:23.585Z,-0.72
2023-03-16T04:44:01.420Z,-0.69
2023-03-16T04:46:33.609Z,-0.67
2023-03-16T04:49:04.697Z,-0.64
2023-03-16T04:51:33.092Z,-0.65
2023-03-16T04:54:06.052Z,-0.67
2023-03-16T04:56:35.076Z,-0.68
2023-03-16T04:59:08.289Z,-0.69
2023-03-16T05:01:44.151Z,-0.71
2023-03-16T05:04:18.962Z,-0.71
2023-03-16T05:06:54.042Z,-0.71
2023-03-16T05:09:26.639Z,-0.75
2023-03-16T05:12:10.145Z,-0.82
2023-03-16T05:14:44.897Z,-0.93
2023-03-16T05:17:15.067Z,-1.04
2023-03-16T05:19:44.906Z,-1.21
2023-03-16T05:22:14.087Z,-1.38
2023-03-16T05:24:45.755Z,-1.52
2023-03-16T05:27:14.526Z,-1.64
2023-03-16T05:29:48.507Z,-1.73
2023-03-16T05:32:19.632Z,-1.79
2023-03-16T05:34:49.935Z,-1.90
2023-03-16T05:37:19.544Z,-1.99
2023-03-16T05:39:48.123Z,-2.08
2023-03-16T05:42:21.291Z,-2.17
2023-03-16T05:44:50.560Z,-2.25
2023-03-16T05:47:20.863Z,-2.32
2023-03-16T05:49:53.028Z,-2.36
2023-03-16T05:52:22.071Z,-2.38
2023-03-16T05:54:54.401Z,-2.39
2023-03-16T05:57:28.272Z,-2.39
2023-03-16T06:00:11.733Z,-2.35
2023-03-16T06:02:41.554Z,-2.31
2023-03-16T06:05:11.629Z,-2.29
2023-03-16T06:07:40.313Z,-2.25
2023-03-16T06:10:13.499Z,-2.22
2023-03-16T06:12:45.685Z,-2.16
2023-03-16T06:15:20.829Z,-2.09
2023-03-16T06:17:49.674Z,-2.03
2023-03-16T06:20:24.690Z,-1.94
2023-03-16T06:23:04.093Z,-1.81
2023-03-16T06:25:32.695Z,-1.75
2023-03-16T06:28:04.831Z,-1.69
2023-03-16T06:30:33.517Z,-1.62
2023-03-16T06:33:02.502Z,-1.53
2023-03-16T06:35:31.970Z,-1.45
2023-03-16T06:38:04.532Z,-1.34
2023-03-16T06:40:41.607Z,-1.21
2023-03-16T06:43:21.785Z,-1.09
2023-03-16T06:46:16.607Z,-0.95
2023-03-16T06:49:11.823Z,-0.81
2023-03-16T06:51:53.180Z,-0.68
2023-03-16T06:54:27.467Z,-0.53
2023-03-16T06:56:59.362Z,-0.43
2023-03-16T06:59:33.096Z,-0.30
2023-03-16T07:02:32.719Z,-0.07
2023-03-16T07:05:01.439Z,0.20
2023-03-16T07:07:34.111Z,0.47
2023-03-16T07:10:29.852Z,0.74
2023-03-16T07:13:07.052Z,0.96
2023-03-16T07:15:43.327Z,1.13
2023-03-16T07:18:18.395Z,1.25
2023-03-16T07:21:04.845Z,1.36
2023-03-16T07:23:37.475Z,1.49
2023-03-16T07:26:21.855Z,1.74
2023-03-16T07:28:53.508Z,1.89
2023-03-16T07:31:23.071Z,2.06
2023-03-16T07:34:00.378Z,2.15
2023-03-16T07:36:35.588Z,2.26
2023-03-16T07:39:14.495Z,2.39
2023-03-16T07:42:03.641Z,2.55
2023-03-16T07:44:35.704Z,2.73
2023-03-16T07:47:05.684Z,2.86
2023-03-16T07:49:38.093Z,2.89
2023-03-16T07:52:08.140Z,2.98
2023-03-16T07:54:40.226Z,3.09
2023-03-16T07:57:09.254Z,3.19
2023-03-16T07:59:39.104Z,3.33
2023-03-16T08:02:16.441Z,3.51
2023-03-16T08:04:46.584Z,3.53
2023-03-16T08:07:18.293Z,3.60
2023-03-16T08:09:49.677Z,3.72
2023-03-16T08:12:18.427Z,3.90
2023-03-16T08:14:49.741Z,3.95
2023-03-16T08:17:18.319Z,4.06
2023-03-16T08:19:48.486Z,4.17
2023-03-16T08:22:26.106Z,4.40
2023-03-16T08:24:58.527Z,4.51
2023-03-16T08:27:29.844Z,4.40
2023-03-16T08:30:09.809Z,4.20
2023-03-16T08:32:40.152Z,3.95
2023-03-16T08:35:14.236Z,3.91
2023-03-16T08:37:54.666Z,3.96
2023-03-16T08:40:29.604Z,4.11
2023-03-16T08:43:06.537Z,4.38
2023-03-16T08:45:35.350Z,4.57
2023-03-16T08:48:08.931Z,4.74
2023-03-16T08:50:37.911Z,4.87
2023-03-16T08:53:06.376Z,4.96
2023-03-16T08:55:38.194Z,4.88
2023-03-16T08:58:10.019Z,4.91
2023-03-16T09:00:40.093Z,5.00
2023-03-16T09:03:08.705Z,4.97
2023-03-16T09:05:38.473Z,4.95
2023-03-16T09:08:07.228Z,5.02
2023-03-16T09:10:37.037Z,5.07
2023-03-16T09:13:08.884Z,4.96
2023-03-16T09:15:41.984Z,5.06
2023-03-16T09:18:14.154Z,5.14
2023-03-16T09:20:43.052Z,5.31
2023-03-16T09:23:17.757Z,5.52
2023-03-16T09:25:53.600Z,5.59
2023-03-16T09:28:31.124Z,5.69
2023-03-16T09:31:07.965Z,5.45
2023-03-16T09:33:40.393Z,5.32
2023-03-16T09:36:12.280Z,5.27
2023-03-16T09:38:42.622Z,5.27
2023-03-16T09:41:38.656Z,5.42
2023-03-16T09:44:25.834Z,5.73
2023-03-16T09:47:01.158Z,6.07
2023-03-16T09:49:57.553Z,5.98
2023-03-16T09:52:32.255Z,6.14
2023-03-16T09:55:38.140Z,6.28
2023-03-16T09:58:21.424Z,6.38
2023-03-16T10:01:06.527Z,6.45
2023-03-16T10:04:23.237Z,6.34
2023-03-16T10:07:17.725Z,6.19
2023-03-16T10:09:53.898Z,6.29
2023-03-16T10:12:32.897Z,6.34
2023-03-16T10:15:19.262Z,6.38
2023-03-16T10:17:56.890Z,6.38
2023-03-16T10:20:46.999Z,6.58
2023-03-16T10:23:29.441Z,6.98
2023-03-16T10:26:19.016Z,6.89
2023-03-16T10:28:53.249Z,6.99
2023-03-16T10:31:28.686Z,6.54
2023-03-16T10:34:17.261Z,6.76
2023-03-16T10:36:53.502Z,6.98
2023-03-16T10:39:22.384Z,6.81
2023-03-16T10:41:59.489Z,6.77
2023-03-16T10:44:38.873Z,6.93
2023-03-16T10:47:08.986Z,7.01
2023-03-16T10:49:46.185Z,7.29
2023-03-16T10:52:29.422Z,7.35
2023-03-16T10:55:02.215Z,7.37
2023-03-16T10:57:43.129Z,7.80
2023-03-16T11:00:25.210Z,8.11
2023-03-16T11:03:05.541Z,8.17
2023-03-16T11:05:36.424Z,8.24
2023-03-16T11:08:20.006Z,8.13
2023-03-16T11:11:03.193Z,7.80
2023-03-16T11:13:35.715Z,7.59
2023-03-16T11:16:14.286Z,7.79
2023-03-16T11:18:50.545Z,7.81
2023-03-16T11:22:08.890Z,7.84
2023-03-16T11:24:55.682Z,7.96
2023-03-16T11:27:41.068Z,7.91
2023-03-16T11:30:36.785Z,7.96
2023-03-16T11:33:14.817Z,8.16
2023-03-16T11:36:03.826Z,8.00
2023-03-16T11:38:47.163Z,7.82
2023-03-16T11:41:40.932Z,8.21
2023-03-16T11:45:00.120Z,8.19
2023-03-16T11:48:23.372Z,8.05
2023-03-16T11:51:14.639Z,8.17
2023-03-16T11:54:29.310Z,8.49
2023-03-16T11:57:19.569Z,8.74
2023-03-16T12:00:10.401Z,8.68
2023-03-16T12:03:27.035Z,8.47
2023-03-16T12:06:23.561Z,8.77
2023-03-16T12:09:19.402Z,9.19
2023-03-16T12:12:06.445Z,9.11
2023-03-16T12:14:53.992Z,8.98
2023-03-16T12:17:30.831Z,8.46
2023-03-16T12:20:18.783Z,8.43
2023-03-16T12:23:03.618Z,8.63
2023-03-16T12:25:46.421Z,8.77
2023-03-16T12:28:28.270Z,8.50
2023-03-16T12:31:44.698Z,8.61
2023-03-16T12:34:37.896Z,8.80
2023-03-16T12:37:30.252Z,8.96
2023-03-16T12:40:08.256Z,8.70
2023-03-16T12:42:42.816Z,8.69
2023-03-16T12:45:32.706Z,8.29
2023-03-16T12:48:20.871Z,8.37
2023-03-16T12:51:03.905Z,8.46
2023-03-16T12:53:59.580Z,9.02
2023-03-16T12:57:00.467Z,9.36
2023-03-16T12:59:43.744Z,9.22
2023-03-16T13:02:18.204Z,8.54
2023-03-16T13:05:23.173Z,8.65
2023-03-16T13:08:10.853Z,9.10
2023-03-16T13:11:02.512Z,9.20
2023-03-16T13:13:36.871Z,9.28
2023-03-16T13:16:28.123Z,9.30
2023-03-16T13:19:03.567Z,9.17
2023-03-16T13:21:46.552Z,8.99
2023-03-16T13:24:32.439Z,9.03
2023-03-16T13:27:35.865Z,9.22
2023-03-16T13:30:34.298Z,9.64
2023-03-16T13:33:22.558Z,9.47
2023-03-16T13:36:08.227Z,9.47
2023-03-16T13:38:37.893Z,9.55
2023-03-16T13:41:11.917Z,9.70
2023-03-16T13:43:45.472Z,9.58
2023-03-16T13:46:21.556Z,9.40
2023-03-16T13:49:02.699Z,9.10
2023-03-16T13:51:43.999Z,9.31
2023-03-16T13:54:19.335Z,9.43
2023-03-16T13:56:50.524Z,9.55
2023-03-16T13:59:31.091Z,9.33
2023-03-16T14:02:04.837Z,9.32
2023-03-16T14:04:43.481Z,9.69
2023-03-16T14:07:21.050Z,10.03
2023-03-16T14:09:57.478Z,10.25
2023-03-16T14:12:26.430Z,10.14
2023-03-16T14:14:55.999Z,10.27
2023-03-16T14:17:31.393Z,10.04
2023-03-16T14:20:05.003Z,10.18
2023-03-16T14:22:38.605Z,10.30
2023-03-16T14:25:08.250Z,10.09
2023-03-16T14:27:39.830Z,10.17
2023-03-16T14:30:18.402Z,9.80
2023-03-16T14:33:10.036Z,9.42
2023-03-16T14:35:44.701Z,9.55
2023-03-16T14:38:37.280Z,9.87
2023-03-16T14:41:31.822Z,10.25
2023-03-16T14:44:32.648Z,10.66
2023-03-16T14:47:05.773Z,10.86
2023-03-16T14:49:43.497Z,11.21
2023-03-16T14:52:37.096Z,11.53
2023-03-16T14:55:34.252Z,11.33
2023-03-16T14:58:23.932Z,11.13
2023-03-16T15:01:02.557Z,11.00
2023-03-16T15:03:45.132Z,10.47
2023-03-16T15:06:17.112Z,10.24
2023-03-16T15:09:05.187Z,9.96
2023-03-16T15:11:34.406Z,9.42
2023-03-16T15:14:37.285Z,9.02
2023-03-16T15:17:06.232Z,8.55
2023-03-16T15:19:38.968Z,8.23
2023-03-16T15:22:07.872Z,8.17
2023-03-16T15:24:40.083Z,8.07
2023-03-16T15:27:45.671Z,7.92
2023-03-16T15:30:20.889Z,7.86
2023-03-16T15:33:13.617Z,7.84
2023-03-16T15:35:49.914Z,7.73
2023-03-16T15:38:33.620Z,7.62
2023-03-16T15:41:11.637Z,7.57
2023-03-16T15:43:40.599Z,7.56
2023-03-16T15:46:11.422Z,7.54
2023-03-16T15:48:40.343Z,7.45
2023-03-16T15:51:24.108Z,7.35
2023-03-16T15:54:15.542Z,7.26
2023-03-16T15:56:54.282Z,7.19
2023-03-16T15:59:24.551Z,7.17
2023-03-16T16:01:55.328Z,7.14
2023-03-16T16:04:25.392Z,7.12
2023-03-16T16:06:55.648Z,7.08
2023-03-16T16:09:24.545Z,7.04
2023-03-16T16:11:53.750Z,6.98
2023-03-16T16:14:27.241Z,6.91
2023-03-16T16:17:01.345Z,6.87
2023-03-16T16:19:33.440Z,6.86
2023-03-16T16:22:10.395Z,6.89
2023-03-16T16:24:39.807Z,6.90
2023-03-16T16:27:12.525Z,6.90
2023-03-16T16:30:11.977Z,6.88
2023-03-16T16:32:42.998Z,6.83
2023-03-16T16:35:23.258Z,6.83
2023-03-16T16:37:52.016Z,6.77
2023-03-16T16:40:33.162Z,6.70
2023-03-16T16:43:11.709Z,6.59
2023-03-16T16:45:51.824Z,6.52
2023-03-16T16:48:34.375Z,6.42
2023-03-16T16:51:11.223Z,6.25
2023-03-16T16:53:43.329Z,6.03
2023-03-16T16:56:19.322Z,5.80
2023-03-16T16:59:07.874Z,5.62
2023-03-16T17:01:36.560Z,5.45
2023-03-16T17:04:17.632Z,5.31
2023-03-16T17:06:52.324Z,5.14
2023-03-16T17:09:21.579Z,5.01
2023-03-16T17:11:56.192Z,4.91
2023-03-16T17:14:28.667Z,4.85
2023-03-16T17:17:03.228Z,4.80
2023-03-16T17:19:33.117Z,4.75
2023-03-16T17:22:22.100Z,4.73
2023-03-16T17:24:59.088Z,4.68
2023-03-16T17:27:33.403Z,4.59
2023-03-16T17:30:03.062Z,4.52
2023-03-16T17:32:35.980Z,4.46
2023-03-16T17:35:29.427Z,4.42
2023-03-16T17:38:01.032Z,4.41
2023-03-16T17:40:30.039Z,4.43
2023-03-16T17:43:01.617Z,4.42
2023-03-16T17:45:31.817Z,4.28
2023-03-16T17:48:00.275Z,4.22
2023-03-16T17:50:30.088Z,4.14
2023-03-16T17:53:00.438Z,4.03
2023-03-16T17:55:29.903Z,3.91
2023-03-16T17:57:59.677Z,3.82
2023-03-16T18:00:32.715Z,3.72
2023-03-16T18:03:20.018Z,3.65
2023-03-16T18:05:48.911Z,3.55
2023-03-16T18:08:20.741Z,3.50
2023-03-16T18:10:55.400Z,3.39
2023-03-16T18:13:31.749Z,3.25
2023-03-16T18:16:02.626Z,3.17
2023-03-16T18:18:39.732Z,3.20
2023-03-16T18:21:22.131Z,3.33
2023-03-16T18:23:53.961Z,3.46
2023-03-16T18:26:24.168Z,3.56
2023-03-16T18:28:53.723Z,3.67
2023-03-16T18:31:27.739Z,3.73
2023-03-16T18:34:01.561Z,3.79
2023-03-16T18:36:33.684Z,3.83
2023-03-16T18:39:06.689Z,3.85
2023-03-16T18:41:36.213Z,3.85
2023-03-16T18:44:18.744Z,3.79
2023-03-16T18:46:52.307Z,3.74
2023-03-16T18:49:29.990Z,3.74
2023-03-16T18:51:59.263Z,3.74
2023-03-16T18:54:35.730Z,3.76
2023-03-16T18:57:14.612Z,3.77
2023-03-16T18:59:53.112Z,3.80
2023-03-16T19:02:39.042Z,3.80
2023-03-16T19:05:20.960Z,3.78
2023-03-16T19:07:53.076Z,3.71
2023-03-16T19:10:47.188Z,3.70
2023-03-16T19:13:20.818Z,3.69
2023-03-16T19:15:51.252Z,3.69
2023-03-16T19:18:23.209Z,3.69
2023-03-16T19:20:55.988Z,3.67
2023-03-16T19:23:37.254Z,3.65
2023-03-16T19:26:09.875Z,3.66
2023-03-16T19:28:40.294Z,3.66
2023-03-16T19:31:30.007Z,3.67
2023-03-16T19:34:33.581Z,3.69
2023-03-16T19:37:15.257Z,3.72
2023-03-16T19:39:48.813Z,3.70
2023-03-16T19:42:30.488Z,3.63
2023-03-16T19:45:02.583Z,3.56
2023-03-16T19:47:36.020Z,3.49
2023-03-16T19:50:28.250Z,3.41
2023-03-16T19:53:00.461Z,3.37
2023-03-16T19:55:38.704Z,3.34
2023-03-16T19:58:34.017Z,3.29
2023-03-16T20:01:22.868Z,3.24
2023-03-16T20:04:10.157Z,3.23
2023-03-16T20:06:38.952Z,3.21
2023-03-16T20:09:11.392Z,3.22
2023-03-16T20:11:41.550Z,3.19
2023-03-16T20:14:27.388Z,3.17
2023-03-16T20:17:03.750Z,3.13
2023-03-16T20:19:32.711Z,3.08
2023-03-16T20:22:07.287Z,3.04
2023-03-16T20:25:09.771Z,2.98
2023-03-16T20:27:39.204Z,2.97
2023-03-16T20:30:35.884Z,2.95
2023-03-16T20:33:17.132Z,2.93
2023-03-16T20:35:47.071Z,2.88
2023-03-16T20:38:20.361Z,2.84
2023-03-16T20:40:52.757Z,2.79
2023-03-16T20:43:26.565Z,2.74
2023-03-16T20:46:04.045Z,2.71
2023-03-16T20:48:35.284Z,2.68
2023-03-16T20:51:13.155Z,2.65
2023-03-16T20:53:57.364Z,2.66
2023-03-16T20:56:28.729Z,2.69
2023-03-16T20:58:57.382Z,2.69
2023-03-16T21:01:27.080Z,2.65
2023-03-16T21:03:57.253Z,2.65
2023-03-16T21:06:32.061Z,2.60
2023-03-16T21:09:03.557Z,2.52
2023-03-16T21:11:37.550Z,2.40
2023-03-16T21:14:14.048Z,2.35
2023-03-16T21:16:58.188Z,2.35
2023-03-16T21:19:30.458Z,2.34
2023-03-16T21:22:02.818Z,2.31
2023-03-16T21:24:31.288Z,2.30
2023-03-16T21:27:02.360Z,2.24
2023-03-16T21:29:30.697Z,2.23
2023-03-16T21:31:58.891Z,2.22
2023-03-16T21:34:33.968Z,2.21
2023-03-16T21:37:02.846Z,2.18
2023-03-16T21:39:31.764Z,2.12
2023-03-16T21:42:00.849Z,2.08
2023-03-16T21:44:29.173Z,2.05
2023-03-16T21:46:57.524Z,2.04
2023-03-16T21:49:26.028Z,2.02
2023-03-16T21:51:54.756Z,1.96
2023-03-16T21:54:23.190Z,1.87
2023-03-16T21:56:51.703Z,1.80
2023-03-16T21:59:22.629Z,1.78
2023-03-16T22:02:01.621Z,1.76
2023-03-16T22:04:31.256Z,1.74
2023-03-16T22:07:00.092Z,1.72
2023-03-16T22:09:30.552Z,1.70
2023-03-16T22:11:58.929Z,1.69
2023-03-16T22:14:27.389Z,1.64
2023-03-16T22:16:56.799Z,1.56
2023-03-16T22:19:27.457Z,1.50
2023-03-16T22:21:59.294Z,1.46
2023-03-16T22:24:34.868Z,1.47
2023-03-16T22:27:04.546Z,1.48
2023-03-16T22:29:36.744Z,1.49
2023-03-16T22:32:15.022Z,1.51
2023-03-16T22:34:53.828Z,1.49
2023-03-16T22:37:27.388Z,1.51
2023-03-16T22:39:58.649Z,1.55
2023-03-16T22:42:29.001Z,1.60
2023-03-16T22:44:58.588Z,1.64
2023-03-16T22:47:33.672Z,1.66
2023-03-16T22:50:02.210Z,1.64
2023-03-16T22:52:33.655Z,1.60
2023-03-16T22:55:04.888Z,1.62
2023-03-16T22:57:33.443Z,1.63
2023-03-16T23:00:11.440Z,1.66
2023-03-16T23:02:42.973Z,1.70
2023-03-16T23:05:27.743Z,1.75
2023-03-16T23:08:00.085Z,1.79
2023-03-16T23:10:29.781Z,1.85
2023-03-16T23:12:59.732Z,1.91
2023-03-16T23:15:31.100Z,1.94
2023-03-16T23:17:59.882Z,1.95
2023-03-16T23:20:32.017Z,1.97
2023-03-16T23:23:00.966Z,1.99
2023-03-16T23:25:30.384Z,1.96
2023-03-16T23:28:01.879Z,1.94
2023-03-16T23:30:31.201Z,1.95
2023-03-16T23:33:00.307Z,1.95
2023-03-16T23:35:31.234Z,1.93
2023-03-16T23:37:59.966Z,1.90
2023-03-16T23:40:29.810Z,1.85
2023-03-16T23:43:00.972Z,1.80
2023-03-16T23:45:37.418Z,1.73
2023-03-16T23:48:08.060Z,1.70
2023-03-16T23:50:37.978Z,1.71
2023-03-16T23:53:13.063Z,1.72
2023-03-16T23:55:42.757Z,1.72
2023-03-16T23:58:12.828Z,1.73
